sensor_id;sensor_type;location;lat;lon;timestamp;temperature;humidity
18175;DHT22;9212;50.894;16.714;2023-03-18T02:40:38;1.30;99.90
18175;DHT22;9212;50.894;16.714;2023-03-18T02:43:20;1.30;99.90
18175;DHT22;9212;50.894;16.714;2023-03-18T02:45:59;1.00;99.90
18175;DHT22;9212;50.894;16.714;2023-03-18T08:45:41;12.30;94.50
18175;DHT22;9212;50.894;16.714;2023-03-18T08:50:37;12.10;93.80
18175;DHT22;9212;50.894;16.714;2023-03-18T08:53:04;12.60;95.00
18175;DHT22;9212;50.894;16.714;2023-03-18T09:05:26;13.40;94.60
18175;DHT22;9212;50.894;16.714;2023-03-18T09:20:15;13.10;95.50
18175;DHT22;9212;50.894;16.714;2023-03-18T09:42:35;13.60;95.70
18175;DHT22;9212;50.894;16.714;2023-03-18T09:57:47;14.10;92.50
18175;DHT22;9212;50.894;16.714;2023-03-18T10:02:47;14.80;91.80
18175;DHT22;9212;50.894;16.714;2023-03-18T10:17:52;14.50;93.50
18175;DHT22;9212;50.894;16.714;2023-03-18T10:25:27;14.90;93.10
18175;DHT22;9212;50.894;16.714;2023-03-18T10:33:14;15.00;91.60
18175;DHT22;9212;50.894;16.714;2023-03-18T10:55:52;16.40;89.60
18175;DHT22;9212;50.894;16.714;2023-03-18T11:13:46;15.90;91.80
18175;DHT22;9212;50.894;16.714;2023-03-18T11:18:49;16.00;87.20
18175;DHT22;9212;50.894;16.714;2023-03-18T11:21:17;16.30;91.40
18175;DHT22;9212;50.894;16.714;2023-03-18T11:29:14;16.50;91.00
18175;DHT22;9212;50.894;16.714;2023-03-18T11:46:49;16.70;91.20
18175;DHT22;9212;50.894;16.714;2023-03-18T11:49:20;17.10;90.90
18175;DHT22;9212;50.894;16.714;2023-03-18T12:49:26;17.70;91.00
18175;DHT22;9212;50.894;16.714;2023-03-18T12:59:31;17.10;90.50
18175;DHT22;9212;50.894;16.714;2023-03-18T13:25:10;17.00;92.10
18175;DHT22;9212;50.894;16.714;2023-03-18T13:30:26;17.40;92.00
18175;DHT22;9212;50.894;16.714;2023-03-18T13:33:11;17.50;49.00
18175;DHT22;9212;50.894;16.714;2023-03-18T13:43:40;16.40;95.20
18175;DHT22;9212;50.894;16.714;2023-03-18T13:56:27;17.10;49.00
18175;DHT22;9212;50.894;16.714;2023-03-18T13:58:54;17.10;92.20
18175;DHT22;9212;50.894;16.714;2023-03-18T14:01:32;17.10;50.30
18175;DHT22;9212;50.894;16.714;2023-03-18T14:04:28;17.20;93.00
18175;DHT22;9212;50.894;16.714;2023-03-18T14:07:11;17.30;93.00
18175;DHT22;9212;50.894;16.714;2023-03-18T14:09:50;16.80;92.70
18175;DHT22;9212;50.894;16.714;2023-03-18T14:12:37;16.80;52.00
18175;DHT22;9212;50.894;16.714;2023-03-18T14:15:35;16.50;92.40
18175;DHT22;9212;50.894;16.714;2023-03-18T14:18:17;16.60;57.90
18175;DHT22;9212;50.894;16.714;2023-03-18T14:23:31;16.30;58.00
18175;DHT22;9212;50.894;16.714;2023-03-18T14:28:29;16.10;64.50
18175;DHT22;9212;50.894;16.714;2023-03-18T14:59:59;15.20;92.70
18175;DHT22;9212;50.894;16.714;2023-03-18T15:12:35;14.60;61.40
18175;DHT22;9212;50.894;16.714;2023-03-18T15:15:03;14.60;95.50
18175;DHT22;9212;50.894;16.714;2023-03-18T15:27:28;14.00;70.60
18175;DHT22;9212;50.894;16.714;2023-03-18T15:29:57;13.80;65.00
18175;DHT22;9212;50.894;16.714;2023-03-18T15:45:10;13.40;97.10
18175;DHT22;9212;50.894;16.714;2023-03-18T15:47:42;13.30;97.00
18175;DHT22;9212;50.894;16.714;2023-03-18T15:50:23;13.40;97.00
18175;DHT22;9212;50.894;16.714;2023-03-18T15:53:01;13.10;58.40
18175;DHT22;9212;50.894;16.714;2023-03-18T15:55:31;13.10;58.90
18175;DHT22;9212;50.894;16.714;2023-03-18T15:58:17;13.00;97.10
18175;DHT22;9212;50.894;16.714;2023-03-18T16:01:32;13.40;97.40
18175;DHT22;9212;50.894;16.714;2023-03-18T16:04:01;12.90;58.60
18175;DHT22;9212;50.894;16.714;2023-03-18T16:06:30;12.70;96.60
18175;DHT22;9212;50.894;16.714;2023-03-18T16:13:54;12.60;94.10
18175;DHT22;9212;50.894;16.714;2023-03-18T16:16:26;12.50;94.60
18175;DHT22;9212;50.894;16.714;2023-03-18T16:18:54;12.20;94.30
18175;DHT22;9212;50.894;16.714;2023-03-18T16:23:51;12.00;94.40
18175;DHT22;9212;50.894;16.714;2023-03-18T16:26:19;12.20;94.80
18175;DHT22;9212;50.894;16.714;2023-03-18T16:33:42;11.90;59.90
18175;DHT22;9212;50.894;16.714;2023-03-18T16:36:21;11.70;94.30
18175;DHT22;9212;50.894;16.714;2023-03-18T16:38:49;11.80;60.60
18175;DHT22;9212;50.894;16.714;2023-03-18T16:41:16;11.60;95.20
18175;DHT22;9212;50.894;16.714;2023-03-18T16:43:43;11.20;95.70
18175;DHT22;9212;50.894;16.714;2023-03-18T16:46:13;11.30;96.20
18175;DHT22;9212;50.894;16.714;2023-03-18T16:48:42;10.80;96.40
18175;DHT22;9212;50.894;16.714;2023-03-18T16:51:09;10.80;96.30
18175;DHT22;9212;50.894;16.714;2023-03-18T16:53:37;10.70;97.40
18175;DHT22;9212;50.894;16.714;2023-03-18T16:56:14;10.50;97.00
18175;DHT22;9212;50.894;16.714;2023-03-18T16:58:41;9.90;98.00
18175;DHT22;9212;50.894;16.714;2023-03-18T17:01:12;10.50;98.70
18175;DHT22;9212;50.894;16.714;2023-03-18T17:03:42;10.30;99.90
18175;DHT22;9212;50.894;16.714;2023-03-18T17:06:10;9.30;99.90
18175;DHT22;9212;50.894;16.714;2023-03-18T17:08:37;9.70;99.90
18175;DHT22;9212;50.894;16.714;2023-03-18T17:13:34;8.90;99.90
18175;DHT22;9212;50.894;16.714;2023-03-18T17:16:03;8.80;99.90
18175;DHT22;9212;50.894;16.714;2023-03-18T17:18:30;9.90;99.90
18175;DHT22;9212;50.894;16.714;2023-03-18T17:20:59;8.90;99.90
18175;DHT22;9212;50.894;16.714;2023-03-18T17:23:28;8.40;99.90
18175;DHT22;9212;50.894;16.714;2023-03-18T17:25:56;8.40;99.90
18175;DHT22;9212;50.894;16.714;2023-03-18T17:28:30;8.40;99.90
18175;DHT22;9212;50.894;16.714;2023-03-18T17:33:28;8.70;99.90
18175;DHT22;9212;50.894;16.714;2023-03-18T17:35:56;7.60;99.90
18175;DHT22;9212;50.894;16.714;2023-03-18T17:38:26;7.80;99.90
18175;DHT22;9212;50.894;16.714;2023-03-18T17:40:55;7.50;99.90
18175;DHT22;9212;50.894;16.714;2023-03-18T17:43:26;7.50;99.90
18175;DHT22;9212;50.894;16.714;2023-03-18T17:45:53;7.30;99.90
18175;DHT22;9212;50.894;16.714;2023-03-18T17:48:22;7.00;99.90
18175;DHT22;9212;50.894;16.714;2023-03-18T17:50:51;7.60;99.90
18175;DHT22;9212;50.894;16.714;2023-03-18T17:53:30;7.10;99.90
18175;DHT22;9212;50.894;16.714;2023-03-18T17:55:58;6.90;99.90
18175;DHT22;9212;50.894;16.714;2023-03-18T17:58:27;8.00;99.90
18175;DHT22;9212;50.894;16.714;2023-03-18T18:01:00;7.20;99.90
18175;DHT22;9212;50.894;16.714;2023-03-18T18:03:29;7.90;99.90
18175;DHT22;9212;50.894;16.714;2023-03-18T18:05:56;6.80;99.90
18175;DHT22;9212;50.894;16.714;2023-03-18T18:08:26;6.00;99.90
18175;DHT22;9212;50.894;16.714;2023-03-18T18:10:59;6.50;99.90
18175;DHT22;9212;50.894;16.714;2023-03-18T18:13:28;6.30;99.90
18175;DHT22;9212;50.894;16.714;2023-03-18T18:15:55;7.40;99.90
18175;DHT22;9212;50.894;16.714;2023-03-18T18:18:23;6.50;99.90
18175;DHT22;9212;50.894;16.714;2023-03-18T18:20:53;6.50;99.90
18175;DHT22;9212;50.894;16.714;2023-03-18T18:23:24;6.20;99.90
18175;DHT22;9212;50.894;16.714;2023-03-18T18:25:55;6.10;99.90
18175;DHT22;9212;50.894;16.714;2023-03-18T18:28:28;6.00;99.90
18175;DHT22;9212;50.894;16.714;2023-03-18T18:30:55;6.10;99.90
18175;DHT22;9212;50.894;16.714;2023-03-18T18:33:23;6.20;99.90
18175;DHT22;9212;50.894;16.714;2023-03-18T18:35:50;6.80;99.90
18175;DHT22;9212;50.894;16.714;2023-03-18T18:38:18;6.20;99.90
18175;DHT22;9212;50.894;16.714;2023-03-18T18:40:45;5.30;99.90
18175;DHT22;9212;50.894;16.714;2023-03-18T18:43:14;5.20;99.90
18175;DHT22;9212;50.894;16.714;2023-03-18T18:45:41;6.30;99.90
18175;DHT22;9212;50.894;16.714;2023-03-18T18:48:13;5.80;99.90
18175;DHT22;9212;50.894;16.714;2023-03-18T18:50:40;5.30;99.90
18175;DHT22;9212;50.894;16.714;2023-03-18T18:53:19;5.50;99.90
18175;DHT22;9212;50.894;16.714;2023-03-18T18:55:47;5.00;99.90
18175;DHT22;9212;50.894;16.714;2023-03-18T18:58:16;4.60;99.90
18175;DHT22;9212;50.894;16.714;2023-03-18T19:00:44;5.00;99.90
18175;DHT22;9212;50.894;16.714;2023-03-18T19:03:13;4.80;99.90
18175;DHT22;9212;50.894;16.714;2023-03-18T19:05:42;5.80;99.90
18175;DHT22;9212;50.894;16.714;2023-03-18T19:08:22;4.40;99.90
18175;DHT22;9212;50.894;16.714;2023-03-18T19:10:51;4.40;99.90
18175;DHT22;9212;50.894;16.714;2023-03-18T19:13:20;4.70;99.90
18175;DHT22;9212;50.894;16.714;2023-03-18T19:15:48;4.40;99.90
18175;DHT22;9212;50.894;16.714;2023-03-18T19:18:17;5.30;99.90
18175;DHT22;9212;50.894;16.714;2023-03-18T19:20:46;4.20;99.90
18175;DHT22;9212;50.894;16.714;2023-03-18T19:23:15;5.40;99.90
18175;DHT22;9212;50.894;16.714;2023-03-18T19:25:42;4.30;99.90
18175;DHT22;9212;50.894;16.714;2023-03-18T19:28:15;4.40;99.90
18175;DHT22;9212;50.894;16.714;2023-03-18T19:30:46;4.20;99.90
18175;DHT22;9212;50.894;16.714;2023-03-18T19:33:14;3.40;99.90
18175;DHT22;9212;50.894;16.714;2023-03-18T19:35:42;5.10;99.90
18175;DHT22;9212;50.894;16.714;2023-03-18T19:38:18;4.00;99.90
18175;DHT22;9212;50.894;16.714;2023-03-18T19:40:47;2.90;99.90
18175;DHT22;9212;50.894;16.714;2023-03-18T19:43:16;4.40;99.90
18175;DHT22;9212;50.894;16.714;2023-03-18T19:45:46;4.00;99.90
18175;DHT22;9212;50.894;16.714;2023-03-18T19:48:18;3.50;99.90
18175;DHT22;9212;50.894;16.714;2023-03-18T19:50:46;4.20;99.90
18175;DHT22;9212;50.894;16.714;2023-03-18T19:53:14;4.30;99.90
18175;DHT22;9212;50.894;16.714;2023-03-18T19:55:43;4.20;99.90
18175;DHT22;9212;50.894;16.714;2023-03-18T19:58:17;4.00;99.90
18175;DHT22;9212;50.894;16.714;2023-03-18T20:00:47;3.90;99.90
18175;DHT22;9212;50.894;16.714;2023-03-18T20:03:15;3.80;99.90
18175;DHT22;9212;50.894;16.714;2023-03-18T20:08:10;3.50;99.90
18175;DHT22;9212;50.894;16.714;2023-03-18T20:10:39;3.50;99.90
18175;DHT22;9212;50.894;16.714;2023-03-18T20:13:12;4.40;99.90
18175;DHT22;9212;50.894;16.714;2023-03-18T20:18:13;3.60;99.90
18175;DHT22;9212;50.894;16.714;2023-03-18T20:20:42;3.60;99.90
18175;DHT22;9212;50.894;16.714;2023-03-18T20:23:16;4.50;99.90
18175;DHT22;9212;50.894;16.714;2023-03-18T20:25:45;3.50;99.90
18175;DHT22;9212;50.894;16.714;2023-03-18T20:28:17;3.30;99.90
18175;DHT22;9212;50.894;16.714;2023-03-18T20:30:46;3.40;99.90
18175;DHT22;9212;50.894;16.714;2023-03-18T20:33:17;3.10;99.90
18175;DHT22;9212;50.894;16.714;2023-03-18T20:35:45;3.20;99.90
18175;DHT22;9212;50.894;16.714;2023-03-18T20:38:15;3.10;99.90
18175;DHT22;9212;50.894;16.714;2023-03-18T20:40:43;2.70;99.90
18175;DHT22;9212;50.894;16.714;2023-03-18T20:43:13;3.40;99.90
18175;DHT22;9212;50.894;16.714;2023-03-18T20:50:36;3.40;99.90
18175;DHT22;9212;50.894;16.714;2023-03-18T20:53:04;3.60;99.90
18175;DHT22;9212;50.894;16.714;2023-03-18T20:55:33;3.30;99.90
18175;DHT22;9212;50.894;16.714;2023-03-18T20:58:01;3.70;99.90
18175;DHT22;9212;50.894;16.714;2023-03-18T21:00:30;3.40;99.90
18175;DHT22;9212;50.894;16.714;2023-03-18T21:03:02;3.30;99.90
18175;DHT22;9212;50.894;16.714;2023-03-18T21:15:29;2.90;99.90
18175;DHT22;9212;50.894;16.714;2023-03-18T21:17:56;3.60;99.90
18175;DHT22;9212;50.894;16.714;2023-03-18T21:20:25;2.90;99.90
18175;DHT22;9212;50.894;16.714;2023-03-18T21:22:53;2.90;99.90
18175;DHT22;9212;50.894;16.714;2023-03-18T21:25:26;3.00;99.90
18175;DHT22;9212;50.894;16.714;2023-03-18T21:30:21;2.60;99.90
18175;DHT22;9212;50.894;16.714;2023-03-18T21:35:18;3.70;99.90
18175;DHT22;9212;50.894;16.714;2023-03-18T21:37:46;1.90;99.90
18175;DHT22;9212;50.894;16.714;2023-03-18T21:40:15;2.50;99.90
18175;DHT22;9212;50.894;16.714;2023-03-18T21:42:44;2.60;99.90
18175;DHT22;9212;50.894;16.714;2023-03-18T21:45:13;2.40;99.90
18175;DHT22;9212;50.894;16.714;2023-03-18T21:47:42;2.20;99.90
18175;DHT22;9212;50.894;16.714;2023-03-18T21:50:18;2.50;99.90
18175;DHT22;9212;50.894;16.714;2023-03-18T21:55:13;2.20;99.90
18175;DHT22;9212;50.894;16.714;2023-03-18T22:00:13;2.20;99.90
18175;DHT22;9212;50.894;16.714;2023-03-18T22:05:11;2.10;99.90
18175;DHT22;9212;50.894;16.714;2023-03-18T22:07:40;2.30;99.90
18175;DHT22;9212;50.894;16.714;2023-03-18T22:10:09;2.30;99.90
18175;DHT22;9212;50.894;16.714;2023-03-18T22:12:37;2.00;99.90
18175;DHT22;9212;50.894;16.714;2023-03-18T22:15:10;1.90;99.90
18175;DHT22;9212;50.894;16.714;2023-03-18T22:17:48;2.40;99.90
18175;DHT22;9212;50.894;16.714;2023-03-18T22:20:16;1.70;99.90
18175;DHT22;9212;50.894;16.714;2023-03-18T22:22:43;1.80;99.90
18175;DHT22;9212;50.894;16.714;2023-03-18T22:25:18;2.90;99.90
18175;DHT22;9212;50.894;16.714;2023-03-18T22:27:48;2.30;99.90
18175;DHT22;9212;50.894;16.714;2023-03-18T22:30:17;3.40;99.90
18175;DHT22;9212;50.894;16.714;2023-03-18T22:32:45;1.80;99.90
18175;DHT22;9212;50.894;16.714;2023-03-18T22:35:14;2.00;99.90
18175;DHT22;9212;50.894;16.714;2023-03-18T22:37:42;2.40;99.90
18175;DHT22;9212;50.894;16.714;2023-03-18T22:40:14;2.00;99.90
18175;DHT22;9212;50.894;16.714;2023-03-18T22:42:42;2.20;99.90
18175;DHT22;9212;50.894;16.714;2023-03-18T22:45:19;2.80;99.90
18175;DHT22;9212;50.894;16.714;2023-03-18T22:47:47;1.50;99.90
18175;DHT22;9212;50.894;16.714;2023-03-18T22:50:15;1.90;99.90
18175;DHT22;9212;50.894;16.714;2023-03-18T22:52:46;1.80;99.90
18175;DHT22;9212;50.894;16.714;2023-03-18T22:55:17;2.50;99.90
18175;DHT22;9212;50.894;16.714;2023-03-18T22:57:47;1.70;99.90
18175;DHT22;9212;50.894;16.714;2023-03-18T23:00:22;2.00;99.90
18175;DHT22;9212;50.894;16.714;2023-03-18T23:02:50;2.10;99.90
18175;DHT22;9212;50.894;16.714;2023-03-18T23:05:19;2.10;99.90
18175;DHT22;9212;50.894;16.714;2023-03-18T23:07:47;2.20;99.90
18175;DHT22;9212;50.894;16.714;2023-03-18T23:10:15;2.20;99.90
18175;DHT22;9212;50.894;16.714;2023-03-18T23:12:42;2.10;99.90
18175;DHT22;9212;50.894;16.714;2023-03-18T23:15:13;2.30;99.90
18175;DHT22;9212;50.894;16.714;2023-03-18T23:20:10;2.60;99.90
18175;DHT22;9212;50.894;16.714;2023-03-18T23:25:05;1.80;99.90
18175;DHT22;9212;50.894;16.714;2023-03-18T23:30:00;2.30;99.90
18175;DHT22;9212;50.894;16.714;2023-03-18T23:34:56;2.00;99.90
18175;DHT22;9212;50.894;16.714;2023-03-18T23:37:23;2.00;99.90
18175;DHT22;9212;50.894;16.714;2023-03-18T23:39:50;1.80;99.90
18175;DHT22;9212;50.894;16.714;2023-03-18T23:42:18;2.00;99.90
18175;DHT22;9212;50.894;16.714;2023-03-18T23:44:46;1.20;99.90
18175;DHT22;9212;50.894;16.714;2023-03-18T23:47:14;2.10;99.90
18175;DHT22;9212;50.894;16.714;2023-03-18T23:49:41;1.80;99.90
18175;DHT22;9212;50.894;16.714;2023-03-18T23:52:11;1.70;99.90
18175;DHT22;9212;50.894;16.714;2023-03-18T23:54:39;2.40;99.90
18175;DHT22;9212;50.894;16.714;2023-03-18T23:57:08;1.80;99.90
18175;DHT22;9212;50.894;16.714;2023-03-18T23:59:36;1.30;99.90
